Time;durP1;ratioP1;P1;durP2;ratioP2;P2;SDS_P1;SDS_P2;PMS_P1;PMS_P2;Temp;Humidity;BMP_temperature;BMP_pressure;BME280_temperature;BME280_humidity;BME280_pressure;Samples;Min_cycle;Max_cycle;Signal;HPM_P1;HPM_P2
2021/03/24 00:01:33;;;;;;;11.75;5.53;;;3.90;99.90;;;;;;4999205;28;20116;-63
2021/03/24 00:04:00;;;;;;;11.35;5.28;;;3.90;99.90;;;;;;5000862;28;20053;-73
2021/03/24 00:06:26;;;;;;;20.60;7.25;;;3.90;99.90;;;;;;5000400;28;20046;-64
2021/03/24 00:08:53;;;;;;;11.82;6.03;;;3.90;99.90;;;;;;5003572;28;20042;-65
2021/03/24 00:11:19;;;;;;;11.35;5.70;;;3.80;99.90;;;;;;4999635;28;20464;-68
2021/03/24 00:13:46;;;;;;;13.32;5.68;;;3.80;99.90;;;;;;5003634;28;20057;-63
2021/03/24 00:16:13;;;;;;;10.30;6.65;;;3.80;99.90;;;;;;5000345;28;20042;-64
2021/03/24 00:18:40;;;;;;;11.38;6.72;;;3.80;99.90;;;;;;5000538;28;20115;-66
2021/03/24 00:21:08;;;;;;;14.73;6.70;;;3.80;99.90;;;;;;4998174;28;20062;-64
2021/03/24 00:23:34;;;;;;;20.63;6.60;;;3.80;99.90;;;;;;5001137;28;20484;-64
2021/03/24 00:26:01;;;;;;;16.23;7.38;;;3.70;99.90;;;;;;4996456;28;20057;-67
2021/03/24 00:28:27;;;;;;;11.52;6.32;;;3.70;99.90;;;;;;5000503;28;20402;-72
2021/03/24 00:30:54;;;;;;;12.82;6.88;;;3.70;99.90;;;;;;4996950;28;20042;-65
2021/03/24 00:33:26;;;;;;;12.38;5.97;;;3.70;99.90;;;;;;4999823;28;20053;-70
2021/03/24 00:35:54;;;;;;;10.80;7.10;;;3.70;99.90;;;;;;4996207;28;20058;-67
2021/03/24 00:38:22;;;;;;;9.60;6.38;;;3.70;99.90;;;;;;4998415;28;20135;-65
2021/03/24 00:40:52;;;;;;;14.55;5.78;;;3.70;99.90;;;;;;4999162;28;20100;-67
2021/03/24 00:43:19;;;;;;;10.20;6.10;;;3.60;99.90;;;;;;5001345;28;20601;-66
2021/03/24 00:45:46;;;;;;;10.50;6.40;;;3.60;99.90;;;;;;4998402;28;20049;-63
2021/03/24 00:48:20;;;;;;;12.02;6.90;;;3.60;99.90;;;;;;4997703;28;20339;-65
2021/03/24 00:50:47;;;;;;;9.15;6.07;;;3.60;99.90;;;;;;4999402;28;20047;-64
2021/03/24 00:53:15;;;;;;;10.32;5.80;;;3.50;99.90;;;;;;4998039;28;20104;-66
2021/03/24 00:55:41;;;;;;;11.63;6.95;;;3.60;99.90;;;;;;4996184;28;20061;-65
2021/03/24 00:58:08;;;;;;;12.50;5.45;;;3.50;99.90;;;;;;4998587;28;20061;-66
2021/03/24 01:00:37;;;;;;;10.52;6.53;;;3.50;99.90;;;;;;4997903;28;20361;-66
2021/03/24 01:03:04;;;;;;;12.32;6.43;;;3.50;99.90;;;;;;5001516;28;20226;-66
2021/03/24 01:05:33;;;;;;;16.50;7.88;;;3.50;99.90;;;;;;5000752;28;20061;-68
2021/03/24 01:08:00;;;;;;;8.75;5.85;;;3.50;99.90;;;;;;4997184;28;20062;-72
2021/03/24 01:10:31;;;;;;;10.63;4.82;;;3.40;99.90;;;;;;4998031;28;20131;-62
2021/03/24 01:12:57;;;;;;;;;;;3.40;99.90;;;;;;4999827;28;20046;-62
2021/03/24 01:15:24;;;;;;;9.90;4.88;;;3.30;99.90;;;;;;4998987;28;19972;-63
2021/03/24 01:17:52;;;;;;;12.25;6.97;;;3.30;99.90;;;;;;4996756;28;20046;-71
2021/03/24 01:20:22;;;;;;;6.38;4.53;;;3.30;99.90;;;;;;5001297;28;20402;-67
2021/03/24 01:22:56;;;;;;;14.35;5.30;;;3.30;99.90;;;;;;4999572;28;20373;-70
2021/03/24 01:25:25;;;;;;;10.55;5.95;;;3.30;99.90;;;;;;4999405;28;20574;-65
2021/03/24 01:27:53;;;;;;;12.50;4.93;;;3.30;99.90;;;;;;4997772;28;20046;-69
2021/03/24 01:30:21;;;;;;;10.20;5.82;;;3.30;99.90;;;;;;5000557;28;20053;-72
2021/03/24 01:32:48;;;;;;;8.80;5.07;;;3.30;99.90;;;;;;4997604;28;20053;-63
2021/03/24 01:35:17;;;;;;;7.80;4.35;;;3.20;99.90;;;;;;5000706;28;20042;-63
2021/03/24 01:37:44;;;;;;;9.52;4.97;;;3.20;99.90;;;;;;4996225;28;20049;-64
2021/03/24 01:40:17;;;;;;;7.43;5.05;;;3.30;99.90;;;;;;4998376;28;20458;-67
2021/03/24 01:42:44;;;;;;;9.93;4.97;;;3.30;99.90;;;;;;4997385;28;20046;-68
2021/03/24 01:45:16;;;;;;;7.05;5.18;;;3.20;99.90;;;;;;5000635;28;20046;-65
2021/03/24 01:47:44;;;;;;;6.45;5.45;;;3.20;99.90;;;;;;4995391;28;20061;-72
2021/03/24 01:50:16;;;;;;;7.45;5.15;;;3.20;99.90;;;;;;5000263;28;20050;-64
2021/03/24 01:52:44;;;;;;;7.57;4.22;;;3.20;99.90;;;;;;4999012;28;20057;-63
2021/03/24 01:55:12;;;;;;;8.50;4.80;;;3.20;99.90;;;;;;5013748;28;20103;-66
2021/03/24 01:57:40;;;;;;;7.32;5.45;;;3.20;99.90;;;;;;4993642;28;20061;-63
2021/03/24 02:00:12;;;;;;;8.02;5.95;;;3.10;99.90;;;;;;5003616;28;20042;-63
2021/03/24 02:02:40;;;;;;;8.63;5.97;;;3.10;99.90;;;;;;5002221;28;20099;-69
2021/03/24 02:05:08;;;;;;;9.95;5.28;;;3.20;99.90;;;;;;5004269;28;20627;-64
2021/03/24 02:07:53;;;;;;;5.78;5.20;;;3.20;99.90;;;;;;4999810;28;20097;-66
2021/03/24 02:10:27;;;;;;;6.20;4.47;;;3.10;99.90;;;;;;5002456;28;20404;-68
2021/03/24 02:13:14;;;;;;;7.60;4.63;;;3.20;99.90;;;;;;5001057;28;20042;-64
2021/03/24 02:15:47;;;;;;;9.77;5.90;;;3.20;99.90;;;;;;5002125;28;20064;-64
2021/03/24 02:18:16;;;;;;;8.95;5.97;;;3.30;99.90;;;;;;4998996;28;20073;-67
2021/03/24 02:20:48;;;;;;;10.15;6.05;;;3.30;99.90;;;;;;5003495;28;20057;-67
2021/03/24 02:23:38;;;;;;;7.60;4.50;;;3.40;99.90;;;;;;4998805;28;20100;-65
2021/03/24 02:26:25;;;;;;;10.75;5.63;;;3.40;99.90;;;;;;5004479;28;20410;-64
2021/03/24 02:28:54;;;;;;;11.13;7.68;;;3.40;99.90;;;;;;5000789;28;20054;-64
2021/03/24 02:31:23;;;;;;;11.45;6.40;;;3.50;99.90;;;;;;5001625;28;20499;-69
2021/03/24 02:33:54;;;;;;;8.43;6.85;;;3.50;99.90;;;;;;5000440;28;20057;-63
2021/03/24 02:36:22;;;;;;;13.07;6.03;;;3.50;99.90;;;;;;5003411;28;20062;-73
2021/03/24 02:38:51;;;;;;;15.38;5.68;;;3.60;99.90;;;;;;4993875;28;20054;-69
2021/03/24 02:41:20;;;;;;;10.85;5.65;;;3.60;99.90;;;;;;5004480;28;20357;-63
2021/03/24 02:43:46;;;;;;;8.32;6.38;;;3.60;99.90;;;;;;4993003;28;20050;-63
2021/03/24 02:46:15;;;;;;;10.18;5.97;;;3.60;99.90;;;;;;4998088;28;20518;-66
2021/03/24 02:48:43;;;;;;;6.30;4.97;;;3.60;99.90;;;;;;4993523;28;20042;-63
2021/03/24 02:51:24;;;;;;;7.85;6.07;;;3.60;99.90;;;;;;4996484;28;20050;-66
2021/03/24 02:54:05;;;;;;;10.02;6.22;;;3.60;99.90;;;;;;4994296;28;20125;-62
2021/03/24 02:56:32;;;;;;;7.55;5.32;;;3.60;99.90;;;;;;4998675;28;20406;-70
2021/03/24 02:58:59;;;;;;;8.85;6.40;;;3.60;99.90;;;;;;4996325;28;20057;-73
2021/03/24 03:01:32;;;;;;;10.00;5.97;;;3.60;99.90;;;;;;4997758;28;20054;-64
2021/03/24 03:04:11;;;;;;;6.72;5.63;;;3.60;99.90;;;;;;4994488;28;20806;-70
2021/03/24 03:06:38;;;;;;;10.48;6.38;;;3.60;99.90;;;;;;4998827;28;20514;-64
2021/03/24 03:09:10;;;;;;;9.85;6.30;;;3.60;99.90;;;;;;4994713;28;20854;-62
2021/03/24 03:11:45;;;;;;;12.63;7.00;;;3.60;99.90;;;;;;4994788;28;20385;-63
2021/03/24 03:14:44;;;;;;;8.68;6.38;;;3.60;99.90;;;;;;4993635;28;20135;-65
2021/03/24 03:17:24;;;;;;;8.27;5.85;;;3.50;99.90;;;;;;4996847;28;20058;-68
2021/03/24 03:20:09;;;;;;;12.10;6.20;;;3.50;99.90;;;;;;4993491;28;20120;-67
2021/03/24 03:22:45;;;;;;;10.90;5.70;;;3.50;99.90;;;;;;4996940;28;20046;-67
2021/03/24 03:25:40;;;;;;;6.50;5.13;;;3.50;99.90;;;;;;4993461;28;20045;-66
2021/03/24 03:28:11;;;;;;;9.60;5.47;;;3.50;99.90;;;;;;4980474;28;20472;-63
2021/03/24 03:30:41;;;;;;;11.07;6.03;;;3.50;99.90;;;;;;4996910;28;20880;-66
2021/03/24 03:33:12;;;;;;;9.23;5.55;;;3.50;99.90;;;;;;4995946;28;20104;-61
2021/03/24 03:35:40;;;;;;;8.85;6.22;;;3.40;99.90;;;;;;4996099;28;20941;-63
2021/03/24 03:38:13;;;;;;;6.47;4.82;;;3.40;99.90;;;;;;4996901;28;20058;-66
2021/03/24 03:40:42;;;;;;;7.45;6.22;;;3.40;99.90;;;;;;4998849;28;20058;-70
2021/03/24 03:43:11;;;;;;;10.55;6.97;;;3.40;99.90;;;;;;4996497;28;20606;-66
2021/03/24 03:45:40;;;;;;;11.20;6.50;;;3.30;99.90;;;;;;5007140;28;20506;-62
2021/03/24 03:48:09;;;;;;;10.52;5.55;;;3.30;99.90;;;;;;4993674;28;20058;-65
2021/03/24 03:50:37;;;;;;;7.90;5.00;;;3.30;99.90;;;;;;4995451;28;20125;-62
2021/03/24 03:53:19;;;;;;;14.38;7.95;;;3.30;99.90;;;;;;4992903;28;20076;-68
2021/03/24 03:56:11;;;;;;;10.75;5.78;;;3.30;99.90;;;;;;4994034;28;20826;-66
2021/03/24 03:59:10;;;;;;;8.40;5.97;;;3.30;99.90;;;;;;4990075;28;20046;-65
2021/03/24 04:01:40;;;;;;;11.23;5.82;;;3.30;99.90;;;;;;4993572;28;20153;-64
2021/03/24 04:04:22;;;;;;;9.18;6.00;;;3.30;99.90;;;;;;4992858;28;20046;-65
2021/03/24 04:07:02;;;;;;;10.75;5.82;;;3.40;99.90;;;;;;4992537;28;20582;-63
2021/03/24 04:09:29;;;;;;;6.53;5.22;;;3.40;99.90;;;;;;4994963;28;20046;-63
2021/03/24 04:11:55;;;;;;;8.80;4.90;;;3.40;99.90;;;;;;4996342;28;20045;-64
2021/03/24 04:14:27;;;;;;;11.63;5.90;;;3.40;99.90;;;;;;4991923;28;20060;-67
2021/03/24 04:16:54;;;;;;;10.40;4.93;;;3.40;99.90;;;;;;4997412;28;20061;-66
2021/03/24 04:19:29;;;;;;;8.55;6.28;;;3.40;99.90;;;;;;4995174;28;20471;-64
2021/03/24 04:22:00;;;;;;;11.02;6.10;;;3.40;99.90;;;;;;4995969;28;20058;-61
2021/03/24 04:24:32;;;;;;;17.27;7.03;;;3.50;99.90;;;;;;4993089;28;20054;-63
2021/03/24 04:27:01;;;;;;;8.70;5.25;;;3.50;99.90;;;;;;4994345;28;20165;-62
2021/03/24 04:29:52;;;;;;;7.70;5.95;;;3.50;99.90;;;;;;4993004;28;20144;-68
2021/03/24 04:32:19;;;;;;;8.50;5.00;;;3.50;99.90;;;;;;4993683;28;20104;-66
2021/03/24 04:34:46;;;;;;;9.27;6.18;;;3.50;99.90;;;;;;4995393;28;20056;-63
2021/03/24 04:37:18;;;;;;;8.93;6.05;;;3.50;99.90;;;;;;4993990;28;20480;-70
2021/03/24 04:40:08;;;;;;;9.18;6.13;;;3.50;99.90;;;;;;4991317;28;20531;-69
2021/03/24 04:42:54;;;;;;;11.65;5.70;;;3.50;99.90;;;;;;4997635;28;20056;-67
2021/03/24 04:45:37;;;;;;;14.05;6.75;;;3.60;99.90;;;;;;4992943;28;20934;-64
2021/03/24 04:48:10;;;;;;;10.57;6.20;;;3.60;99.90;;;;;;4994719;28;20045;-64
2021/03/24 04:50:59;;;;;;;8.15;5.82;;;3.60;99.90;;;;;;4995502;28;20091;-68
2021/03/24 04:53:30;;;;;;;9.77;5.10;;;3.70;99.90;;;;;;4994002;28;20072;-64
2021/03/24 04:55:59;;;;;;;8.15;5.57;;;3.70;99.90;;;;;;4992632;28;21299;-66
2021/03/24 04:58:33;;;;;;;7.47;6.75;;;3.70;99.90;;;;;;4993079;28;20045;-68
2021/03/24 05:01:26;;;;;;;7.45;5.72;;;3.80;99.90;;;;;;4995323;28;20171;-74
2021/03/24 05:04:05;;;;;;;10.38;6.55;;;3.80;99.90;;;;;;4991831;28;20130;-69
2021/03/24 05:06:38;;;;;;;11.32;6.38;;;3.80;99.90;;;;;;4993528;28;20480;-68
2021/03/24 05:09:06;;;;;;;25.38;8.10;;;3.90;99.90;;;;;;4995420;28;20060;-64
2021/03/24 05:11:53;;;;;;;10.20;6.30;;;3.90;99.90;;;;;;4992739;28;20049;-64
2021/03/24 05:14:32;;;;;;;9.55;5.95;;;3.90;99.90;;;;;;4996609;28;20418;-67
2021/03/24 05:17:26;;;;;;;12.10;6.13;;;3.90;99.90;;;;;;4992597;28;20070;-72
2021/03/24 05:20:04;;;;;;;10.75;6.72;;;3.90;99.90;;;;;;4992827;28;20072;-62
2021/03/24 05:22:41;;;;;;;8.40;5.63;;;3.90;99.90;;;;;;4991363;28;20471;-67
2021/03/24 05:25:19;;;;;;;11.80;6.57;;;4.00;99.90;;;;;;4994358;28;20054;-68
2021/03/24 05:27:49;;;;;;;12.48;7.63;;;4.00;99.90;;;;;;4991479;28;20073;-69
2021/03/24 05:30:27;;;;;;;9.45;6.90;;;4.00;99.90;;;;;;4994941;28;20058;-61
2021/03/24 05:33:30;;;;;;;10.00;7.28;;;4.00;99.90;;;;;;4996572;28;20053;-67
2021/03/24 05:35:56;;;;;;;17.10;6.60;;;4.10;99.90;;;;;;4982734;28;20976;-64
2021/03/24 05:38:44;;;;;;;16.35;8.02;;;4.10;99.90;;;;;;4992407;28;20050;-67
2021/03/24 05:41:33;;;;;;;9.60;6.63;;;4.10;99.90;;;;;;4998272;28;20062;-62
2021/03/24 05:44:23;;;;;;;10.32;7.65;;;4.20;99.90;;;;;;4995616;28;20101;-65
2021/03/24 05:47:20;;;;;;;13.40;7.40;;;4.20;99.90;;;;;;4998896;28;20415;-64
2021/03/24 05:49:56;;;;;;;9.95;7.03;;;4.20;99.90;;;;;;4986752;28;20054;-64
2021/03/24 05:52:47;;;;;;;14.18;8.00;;;4.20;99.90;;;;;;4994906;28;20050;-65
2021/03/24 05:55:19;;;;;;;;;;;4.20;99.90;;;;;;4994594;28;20047;-70
2021/03/24 05:58:11;;;;;;;10.65;6.20;;;4.20;99.90;;;;;;4994152;28;19925;-64
2021/03/24 06:00:46;;;;;;;15.35;9.45;;;4.20;99.90;;;;;;4965764;28;20053;-63
2021/03/24 06:03:28;;;;;;;13.82;8.02;;;4.20;99.90;;;;;;4995798;28;20056;-62
2021/03/24 06:06:09;;;;;;;9.20;7.95;;;4.30;99.90;;;;;;4994299;28;20119;-67
2021/03/24 06:08:44;;;;;;;15.98;8.90;;;4.30;99.90;;;;;;4995778;28;20046;-73
2021/03/24 06:11:59;;;;;;;11.27;8.48;;;4.30;99.90;;;;;;4994132;28;20482;-70
2021/03/24 06:15:00;;;;;;;14.23;6.95;;;4.30;99.90;;;;;;4983169;28;20046;-63
2021/03/24 06:17:59;;;;;;;12.02;7.47;;;4.40;99.90;;;;;;4997584;28;20054;-63
2021/03/24 06:20:33;;;;;;;12.93;7.28;;;4.40;99.90;;;;;;4996394;28;20050;-63
2021/03/24 06:23:26;;;;;;;17.75;8.35;;;4.40;99.90;;;;;;4996969;28;20408;-69
2021/03/24 06:26:19;;;;;;;14.00;7.90;;;4.50;99.90;;;;;;4985338;28;20064;-67
2021/03/24 06:29:01;;;;;;;15.73;8.38;;;4.50;99.90;;;;;;4997599;28;20444;-66
2021/03/24 06:31:45;;;;;;;12.82;7.95;;;4.50;99.90;;;;;;4998906;28;20072;-67
2021/03/24 06:34:18;;;;;;;14.93;10.00;;;4.50;99.90;;;;;;4993660;28;20146;-67
2021/03/24 06:37:28;;;;;;;14.60;8.68;;;4.60;99.90;;;;;;5002134;28;20088;-62
2021/03/24 06:40:10;;;;;;;18.08;9.98;;;4.60;99.90;;;;;;4993282;28;20120;-65
2021/03/24 06:42:57;;;;;;;17.15;10.15;;;4.60;99.90;;;;;;4998514;28;20042;-65
2021/03/24 06:45:33;;;;;;;13.80;7.13;;;4.60;99.90;;;;;;4997995;28;20482;-66
2021/03/24 06:48:29;;;;;;;13.23;7.95;;;4.70;99.90;;;;;;4993666;28;20450;-64
2021/03/24 06:51:26;;;;;;;20.25;9.50;;;4.70;99.90;;;;;;4998532;28;20157;-65
2021/03/24 06:54:21;;;;;;;15.77;9.00;;;4.70;99.90;;;;;;4994049;28;20103;-66
2021/03/24 06:57:14;;;;;;;13.40;10.27;;;4.70;99.90;;;;;;4997379;28;20045;-70
2021/03/24 07:00:25;;;;;;;15.70;8.77;;;4.80;99.90;;;;;;4988599;28;20142;-69
2021/03/24 07:03:23;;;;;;;11.10;7.13;;;4.80;99.90;;;;;;4997229;28;20050;-63
2021/03/24 07:06:00;;;;;;;13.77;7.95;;;4.80;99.90;;;;;;4991781;28;20058;-62
2021/03/24 07:08:58;;;;;;;17.05;8.52;;;4.80;99.90;;;;;;4997850;28;20606;-65
2021/03/24 07:11:58;;;;;;;12.98;8.43;;;4.90;99.90;;;;;;4992999;28;20104;-65
2021/03/24 07:14:39;;;;;;;11.23;7.75;;;4.90;99.90;;;;;;4993737;28;20058;-68
2021/03/24 07:17:42;;;;;;;16.98;8.05;;;5.00;99.90;;;;;;5000486;28;20397;-63
2021/03/24 07:20:46;;;;;;;11.68;8.32;;;5.00;99.90;;;;;;4995806;28;20053;-69
2021/03/24 07:24:11;;;;;;;13.43;6.93;;;5.10;99.90;;;;;;4999017;28;20137;-71
2021/03/24 07:27:12;;;;;;;15.25;7.10;;;5.10;99.90;;;;;;4943337;28;20046;-64
2021/03/24 07:29:54;;;;;;;14.30;6.80;;;5.10;99.90;;;;;;4996448;28;20038;-73
2021/03/24 07:32:42;;;;;;;21.90;7.97;;;5.20;99.90;;;;;;4995853;28;20069;-65
2021/03/24 07:35:29;;;;;;;16.48;8.85;;;5.20;99.90;;;;;;4996988;28;20128;-65
2021/03/24 07:38:20;;;;;;;12.45;8.32;;;5.20;99.90;;;;;;4995522;28;20160;-66
2021/03/24 07:41:18;;;;;;;11.98;7.95;;;5.20;99.90;;;;;;4997482;28;20549;-63
2021/03/24 07:44:02;;;;;;;13.73;8.00;;;5.20;99.90;;;;;;4992284;28;20049;-69
2021/03/24 07:46:54;;;;;;;10.65;7.93;;;5.20;99.90;;;;;;4997790;28;20080;-63
2021/03/24 07:49:58;;;;;;;14.98;7.15;;;5.20;99.90;;;;;;5001027;28;20058;-64
2021/03/24 07:52:42;;;;;;;15.52;7.70;;;5.20;99.90;;;;;;5000382;28;20396;-63
2021/03/24 07:55:35;;;;;;;14.32;9.93;;;5.20;99.90;;;;;;5000936;28;20054;-66
2021/03/24 07:58:27;;;;;;;13.18;7.95;;;5.20;99.90;;;;;;4997105;28;20038;-63
2021/03/24 08:01:14;;;;;;;13.02;8.60;;;5.20;99.90;;;;;;5000063;28;20042;-64
2021/03/24 08:03:51;;;;;;;16.20;8.05;;;5.20;99.90;;;;;;4998351;28;20484;-65
2021/03/24 08:06:23;;;;;;;14.07;7.68;;;5.20;99.90;;;;;;5000060;28;20889;-61
2021/03/24 08:09:18;;;;;;;13.00;7.45;;;5.20;99.90;;;;;;4993540;28;20104;-63
2021/03/24 08:12:12;;;;;;;14.77;7.95;;;5.30;99.90;;;;;;4997033;28;20058;-67
2021/03/24 08:14:53;;;;;;;11.38;7.72;;;5.30;99.90;;;;;;4999431;28;20449;-63
2021/03/24 08:17:44;;;;;;;15.23;6.13;;;5.30;99.90;;;;;;4998318;28;20053;-73
2021/03/24 08:20:37;;;;;;;11.15;6.53;;;5.40;99.90;;;;;;4992398;28;20061;-62
2021/03/24 08:23:30;;;;;;;11.55;7.32;;;5.40;99.90;;;;;;4999677;28;20060;-67
2021/03/24 08:26:31;;;;;;;11.50;7.93;;;5.40;99.90;;;;;;4993870;28;21493;-63
2021/03/24 08:29:16;;;;;;;16.40;7.47;;;5.50;99.90;;;;;;4999024;28;20133;-69
2021/03/24 08:32:09;;;;;;;9.10;6.50;;;5.50;99.90;;;;;;4992592;28;20073;-63
2021/03/24 08:35:07;;;;;;;11.27;7.30;;;5.60;99.90;;;;;;4989113;28;20046;-70
2021/03/24 08:37:52;;;;;;;10.73;7.00;;;5.60;99.90;;;;;;4997953;28;20061;-65
2021/03/24 08:40:18;;;;;;;15.65;7.28;;;5.60;99.90;;;;;;4998775;28;20054;-62
2021/03/24 08:42:51;;;;;;;10.00;6.60;;;5.70;99.90;;;;;;4995169;28;20054;-67
2021/03/24 08:45:34;;;;;;;12.90;8.15;;;5.70;99.90;;;;;;4995883;28;20065;-65
2021/03/24 08:48:06;;;;;;;40.67;10.82;;;5.80;99.90;;;;;;4993583;28;20510;-68
2021/03/24 08:50:40;;;;;;;18.67;6.40;;;5.80;99.90;;;;;;5001113;28;20042;-65
2021/03/24 08:53:11;;;;;;;14.98;6.07;;;5.80;99.90;;;;;;4993444;28;20072;-63
2021/03/24 08:56:05;;;;;;;10.70;5.97;;;5.80;99.90;;;;;;4999077;28;20081;-65
2021/03/24 08:59:01;;;;;;;18.90;6.43;;;5.80;99.90;;;;;;4996891;28;20060;-64
2021/03/24 09:01:47;;;;;;;15.43;5.90;;;5.80;99.90;;;;;;4995637;28;20053;-62
2021/03/24 09:04:38;;;;;;;12.35;5.45;;;5.90;99.90;;;;;;4996794;28;20115;-73
2021/03/24 09:07:35;;;;;;;11.63;6.18;;;5.80;99.90;;;;;;4998747;28;20103;-64
2021/03/24 09:10:44;;;;;;;9.88;5.03;;;5.80;99.90;;;;;;4993833;28;20046;-66
2021/03/24 09:13:22;;;;;;;10.77;6.05;;;5.90;99.90;;;;;;4999489;28;20088;-63
2021/03/24 09:15:58;;;;;;;12.52;4.90;;;5.90;99.90;;;;;;4989541;28;20053;-63
2021/03/24 09:18:49;;;;;;;13.98;5.15;;;5.90;99.90;;;;;;4998320;28;20045;-68
2021/03/24 09:21:26;;;;;;;15.18;4.13;;;5.80;99.90;;;;;;4997754;28;20073;-65
2021/03/24 09:24:08;;;;;;;13.43;6.15;;;5.90;99.90;;;;;;4992577;28;22425;-68
2021/03/24 09:27:04;;;;;;;10.05;4.88;;;6.00;99.90;;;;;;4994107;28;20046;-63
2021/03/24 09:29:59;;;;;;;9.55;4.97;;;5.90;99.90;;;;;;4992691;28;20046;-64
2021/03/24 09:32:48;;;;;;;8.20;4.50;;;5.80;99.90;;;;;;4979570;28;20069;-65
2021/03/24 09:35:45;;;;;;;9.95;5.85;;;5.90;99.90;;;;;;4991356;28;20727;-63
2021/03/24 09:38:19;;;;;;;8.45;5.07;;;5.90;99.90;;;;;;4994346;28;20066;-64
2021/03/24 09:40:51;;;;;;;14.82;6.47;;;5.90;99.90;;;;;;4994701;28;20100;-69
2021/03/24 09:43:21;;;;;;;11.60;5.95;;;6.10;99.90;;;;;;4995662;28;20440;-66
2021/03/24 09:46:21;;;;;;;8.00;5.93;;;6.20;99.90;;;;;;4990812;28;20388;-62
2021/03/24 09:48:57;;;;;;;7.32;6.10;;;6.30;99.90;;;;;;4970113;28;20049;-68
2021/03/24 09:51:40;;;;;;;11.48;5.93;;;6.60;99.90;;;;;;4995545;28;20054;-67
2021/03/24 09:54:17;;;;;;;15.10;6.65;;;6.70;99.90;;;;;;4995507;28;20890;-71
2021/03/24 09:56:54;;;;;;;14.93;8.25;;;6.80;99.90;;;;;;4997955;28;20053;-64
2021/03/24 09:59:48;;;;;;;13.07;6.50;;;6.80;99.90;;;;;;4993677;28;20154;-63
2021/03/24 10:02:35;;;;;;;;;;;6.80;99.90;;;;;;4992287;28;20054;-66
2021/03/24 10:05:07;;;;;;;11.27;6.22;;;6.80;99.90;;;;;;5003006;28;19921;-63
2021/03/24 10:07:41;;;;;;;16.77;7.38;;;6.90;99.90;;;;;;4994970;28;20049;-70
2021/03/24 10:10:19;;;;;;;23.48;7.32;;;6.90;99.90;;;;;;5001639;28;20488;-66
2021/03/24 10:13:19;;;;;;;12.10;7.82;;;6.90;99.90;;;;;;4996337;28;20650;-65
2021/03/24 10:15:59;;;;;;;17.75;6.05;;;7.00;99.90;;;;;;4991907;28;20119;-63
2021/03/24 10:18:34;;;;;;;12.90;6.25;;;7.10;99.90;;;;;;4998764;28;20050;-67
2021/03/24 10:21:07;;;;;;;17.85;10.85;;;7.00;99.90;;;;;;4997526;28;20527;-63
2021/03/24 10:23:47;;;;;;;21.63;7.07;;;7.10;99.90;;;;;;5001445;28;20049;-67
2021/03/24 10:26:16;;;;;;;11.45;6.38;;;7.20;99.90;;;;;;5001979;28;20054;-72
2021/03/24 10:29:06;;;;;;;14.98;6.97;;;7.30;99.90;;;;;;5000401;28;20049;-65
2021/03/24 10:31:39;;;;;;;15.70;7.50;;;7.20;99.90;;;;;;4999839;28;20058;-66
2021/03/24 10:34:18;;;;;;;18.75;8.00;;;7.20;99.90;;;;;;4999004;28;20112;-63
2021/03/24 10:36:54;;;;;;;20.27;8.40;;;7.30;99.90;;;;;;5000641;28;20460;-66
2021/03/24 10:39:23;;;;;;;16.30;8.88;;;7.30;99.90;;;;;;4997885;28;20526;-64
2021/03/24 10:41:52;;;;;;;16.10;7.75;;;7.30;99.90;;;;;;5000351;28;20133;-69
2021/03/24 10:44:40;;;;;;;14.05;8.15;;;7.40;99.90;;;;;;5001251;28;20591;-68
2021/03/24 10:47:25;;;;;;;22.20;10.50;;;7.50;99.90;;;;;;5000374;28;20058;-65
2021/03/24 10:50:14;;;;;;;12.82;8.77;;;7.50;99.90;;;;;;4995615;28;20074;-65
2021/03/24 10:52:59;;;;;;;15.38;8.77;;;7.50;99.90;;;;;;4996755;28;20046;-63
2021/03/24 10:55:28;;;;;;;21.05;8.40;;;7.50;99.90;;;;;;4999415;28;20046;-68
2021/03/24 10:58:36;;;;;;;14.20;8.10;;;7.50;99.90;;;;;;4994284;28;20043;-68
2021/03/24 11:01:06;;;;;;;17.35;7.82;;;7.60;99.90;;;;;;5003119;28;20500;-68
2021/03/24 11:03:58;;;;;;;19.23;7.55;;;7.80;99.90;;;;;;4995726;28;20049;-64
2021/03/24 11:06:38;;;;;;;16.75;9.38;;;7.90;99.90;;;;;;5002360;28;20101;-66
2021/03/24 11:09:18;;;;;;;15.98;9.38;;;7.90;99.90;;;;;;4998383;28;20053;-64
2021/03/24 11:12:01;;;;;;;12.32;6.90;;;8.00;99.90;;;;;;5002206;28;20072;-66
2021/03/24 11:14:56;;;;;;;21.25;8.00;;;8.30;99.90;;;;;;4999212;28;20107;-70
2021/03/24 11:17:31;;;;;;;14.18;7.05;;;8.40;99.90;;;;;;4981166;28;20045;-64
2021/03/24 11:20:12;;;;;;;15.57;8.43;;;8.50;99.90;;;;;;4995115;28;20057;-64
2021/03/24 11:22:50;;;;;;;26.27;10.13;;;8.60;99.90;;;;;;4996519;28;20472;-63
2021/03/24 11:25:22;;;;;;;16.27;8.45;;;8.70;99.90;;;;;;4996772;28;20447;-64
2021/03/24 11:27:55;;;;;;;16.30;10.63;;;8.80;99.90;;;;;;4999990;28;20050;-64
2021/03/24 11:30:45;;;;;;;12.77;8.52;;;8.80;99.90;;;;;;5000294;28;20064;-66
2021/03/24 11:33:33;;;;;;;11.77;8.00;;;8.80;99.90;;;;;;4999430;28;20053;-63
2021/03/24 11:36:05;;;;;;;12.98;9.65;;;8.80;99.90;;;;;;4996276;28;20052;-64
2021/03/24 11:38:37;;;;;;;16.55;10.10;;;8.90;99.90;;;;;;4995219;28;20092;-69
2021/03/24 11:41:08;;;;;;;14.10;9.05;;;9.00;99.90;;;;;;4995591;28;20060;-65
2021/03/24 11:43:40;;;;;;;18.30;10.80;;;9.00;99.90;;;;;;4989588;28;20042;-71
2021/03/24 11:46:18;;;;;;;20.80;9.35;;;9.00;99.90;;;;;;4995353;28;20153;-68
2021/03/24 11:48:57;;;;;;;19.48;9.00;;;8.90;99.90;;;;;;4992755;28;20078;-69
2021/03/24 11:51:41;;;;;;;14.07;8.43;;;9.10;99.90;;;;;;4996026;28;20058;-66
2021/03/24 11:54:13;;;;;;;15.90;8.73;;;9.20;99.90;;;;;;4998389;28;20058;-64
2021/03/24 11:57:10;;;;;;;18.02;8.48;;;9.30;99.90;;;;;;4998346;28;20434;-65
2021/03/24 12:00:14;;;;;;;13.25;7.82;;;9.30;99.90;;;;;;4954284;28;20058;-69
2021/03/24 12:03:18;;;;;;;15.82;9.20;;;9.50;99.90;;;;;;4994025;28;20599;-64
2021/03/24 12:06:18;;;;;;;14.63;8.65;;;9.60;99.90;;;;;;4989375;28;20152;-69
2021/03/24 12:08:54;;;;;;;12.55;8.07;;;9.40;99.90;;;;;;4994721;28;20054;-69
2021/03/24 12:11:24;;;;;;;14.57;8.70;;;9.20;99.90;;;;;;4990039;28;20065;-69
2021/03/24 12:14:13;;;;;;;14.93;8.35;;;9.40;99.90;;;;;;4994214;28;20055;-64
2021/03/24 12:16:52;;;;;;;16.17;8.65;;;9.40;99.90;;;;;;4996695;28;20066;-68
2021/03/24 12:19:42;;;;;;;21.83;8.93;;;9.30;99.90;;;;;;4998976;28;20456;-65
2021/03/24 12:22:21;;;;;;;23.37;8.80;;;9.40;99.90;;;;;;4987929;28;20121;-64
2021/03/24 12:25:02;;;;;;;13.77;8.00;;;9.40;99.90;;;;;;4997987;28;20046;-63
2021/03/24 12:27:32;;;;;;;15.80;9.38;;;9.40;99.90;;;;;;4998257;28;20057;-63
2021/03/24 12:30:14;;;;;;;20.23;8.07;;;9.60;99.90;;;;;;4993932;28;20104;-67
2021/03/24 12:32:41;;;;;;;13.43;8.57;;;9.60;99.90;;;;;;4995310;28;20053;-66
2021/03/24 12:35:19;;;;;;;19.48;10.77;;;9.60;99.90;;;;;;4998723;28;20065;-63
2021/03/24 12:37:50;;;;;;;14.13;8.52;;;9.60;99.90;;;;;;4989795;28;20105;-70
2021/03/24 12:40:23;;;;;;;15.88;9.07;;;9.60;99.90;;;;;;4993911;28;20034;-66
2021/03/24 12:42:51;;;;;;;14.57;10.68;;;9.70;99.90;;;;;;4995630;28;20061;-69
2021/03/24 12:45:31;;;;;;;16.40;7.57;;;9.80;99.90;;;;;;4998387;28;20107;-71
2021/03/24 12:48:21;;;;;;;14.35;8.23;;;9.90;99.90;;;;;;4996970;28;20579;-67
2021/03/24 12:51:00;;;;;;;16.92;10.00;;;9.90;99.90;;;;;;4995995;28;20063;-67
2021/03/24 12:53:58;;;;;;;16.38;8.95;;;10.00;99.90;;;;;;4995546;28;20357;-70
2021/03/24 12:56:50;;;;;;;16.77;10.45;;;9.90;99.90;;;;;;4990116;28;20061;-67
2021/03/24 12:59:33;;;;;;;15.32;8.70;;;10.00;99.90;;;;;;4996192;28;20058;-67
2021/03/24 13:02:00;;;;;;;16.67;8.60;;;10.20;99.90;;;;;;4996883;28;20440;-72
2021/03/24 13:04:52;;;;;;;18.38;10.40;;;10.20;99.90;;;;;;4993191;28;20082;-63
2021/03/24 13:07:42;;;;;;;17.50;8.73;;;10.10;99.90;;;;;;4995058;28;20489;-67
2021/03/24 13:10:24;;;;;;;18.00;9.25;;;10.10;99.90;;;;;;4992739;28;20054;-73
2021/03/24 13:13:13;;;;;;;15.50;8.68;;;10.00;99.90;;;;;;4998763;28;20076;-65
2021/03/24 13:15:47;;;;;;;18.48;8.43;;;10.20;99.90;;;;;;4995445;28;20101;-66
2021/03/24 13:18:39;;;;;;;19.45;8.93;;;10.20;99.90;;;;;;4996001;28;20557;-67
2021/03/24 13:21:18;;;;;;;16.90;10.15;;;10.20;99.90;;;;;;4995394;28;20078;-74
2021/03/24 13:24:12;;;;;;;15.13;9.45;;;10.30;99.90;;;;;;4995558;28;20046;-66
2021/03/24 13:26:41;;;;;;;17.98;9.52;;;10.20;99.90;;;;;;4998662;28;20053;-64
2021/03/24 13:29:28;;;;;;;18.75;10.05;;;10.30;99.90;;;;;;4999044;28;20124;-66
2021/03/24 13:32:13;;;;;;;14.93;9.25;;;10.30;99.90;;;;;;4994184;28;20779;-64
2021/03/24 13:34:52;;;;;;;17.88;10.48;;;10.10;99.90;;;;;;4997864;28;20097;-64
2021/03/24 13:37:23;;;;;;;15.93;9.88;;;10.10;99.90;;;;;;4993953;28;20073;-66
2021/03/24 13:39:54;;;;;;;;;;;10.10;99.90;;;;;;4990542;28;20485;-64
2021/03/24 13:42:40;;;;;;;17.38;11.07;;;10.20;99.90;;;;;;4993501;28;19953;-66
2021/03/24 13:45:34;;;;;;;15.43;10.23;;;10.10;99.90;;;;;;4992614;28;20046;-63
2021/03/24 13:48:14;;;;;;;16.38;10.13;;;10.10;99.90;;;;;;4993837;28;20054;-72
2021/03/24 13:50:48;;;;;;;13.85;8.95;;;10.30;99.90;;;;;;4994153;28;20035;-64
2021/03/24 13:53:42;;;;;;;16.15;9.05;;;10.30;99.90;;;;;;4997389;28;20056;-64